sensor_id;sensor_type;location;lat;lon;timestamp;temperature;humidity
8002;DHT22;4046;48.774;8.732;2024-02-21T00:02:26;20.60;72.60
8002;DHT22;4046;48.774;8.732;2024-02-21T00:04:59;20.60;72.60
8002;DHT22;4046;48.774;8.732;2024-02-21T00:10:57;20.60;72.60
8002;DHT22;4046;48.774;8.732;2024-02-21T00:13:36;20.60;72.60
8002;DHT22;4046;48.774;8.732;2024-02-21T00:16:23;20.60;72.60
8002;DHT22;4046;48.774;8.732;2024-02-21T00:18:56;20.60;72.60
8002;DHT22;4046;48.774;8.732;2024-02-21T00:21:23;20.60;72.60
8002;DHT22;4046;48.774;8.732;2024-02-21T00:26:59;20.60;72.60
8002;DHT22;4046;48.774;8.732;2024-02-21T00:29:25;21.00;73.00
8002;DHT22;4046;48.774;8.732;2024-02-21T00:31:52;20.60;72.50
8002;DHT22;4046;48.774;8.732;2024-02-21T00:34:34;20.60;72.60
8002;DHT22;4046;48.774;8.732;2024-02-21T00:37:53;20.60;72.50
8002;DHT22;4046;48.774;8.732;2024-02-21T00:44:04;20.60;72.50
8002;DHT22;4046;48.774;8.732;2024-02-21T00:46:42;20.60;72.60
8002;DHT22;4046;48.774;8.732;2024-02-21T00:49:28;20.60;72.50
8002;DHT22;4046;48.774;8.732;2024-02-21T00:55:03;20.60;72.60
8002;DHT22;4046;48.774;8.732;2024-02-21T00:58:09;20.60;72.50
8002;DHT22;4046;48.774;8.732;2024-02-21T01:01:00;20.60;72.50
8002;DHT22;4046;48.774;8.732;2024-02-21T01:04:24;20.60;72.50
8002;DHT22;4046;48.774;8.732;2024-02-21T01:07:32;20.60;72.60
8002;DHT22;4046;48.774;8.732;2024-02-21T01:11:11;20.60;72.50
8002;DHT22;4046;48.774;8.732;2024-02-21T01:13:54;20.60;72.50
8002;DHT22;4046;48.774;8.732;2024-02-21T01:17:17;20.60;72.50
8002;DHT22;4046;48.774;8.732;2024-02-21T01:20:04;20.50;72.50
8002;DHT22;4046;48.774;8.732;2024-02-21T01:23:14;20.50;72.50
8002;DHT22;4046;48.774;8.732;2024-02-21T01:25:44;20.60;72.60
8002;DHT22;4046;48.774;8.732;2024-02-21T01:28:34;21.10;73.10
8002;DHT22;4046;48.774;8.732;2024-02-21T01:35:16;20.60;72.60
8002;DHT22;4046;48.774;8.732;2024-02-21T01:37:42;20.60;72.50
8002;DHT22;4046;48.774;8.732;2024-02-21T01:40:35;20.60;72.50
8002;DHT22;4046;48.774;8.732;2024-02-21T01:43:22;20.60;72.40
8002;DHT22;4046;48.774;8.732;2024-02-21T01:45:53;20.60;72.50
8002;DHT22;4046;48.774;8.732;2024-02-21T01:48:44;20.60;72.50
8002;DHT22;4046;48.774;8.732;2024-02-21T01:51:39;20.60;72.40
8002;DHT22;4046;48.774;8.732;2024-02-21T01:54:34;20.60;72.40
8002;DHT22;4046;48.774;8.732;2024-02-21T01:57:17;20.60;72.40
8002;DHT22;4046;48.774;8.732;2024-02-21T02:02:34;20.60;72.40
8002;DHT22;4046;48.774;8.732;2024-02-21T02:05:31;20.60;72.40
8002;DHT22;4046;48.774;8.732;2024-02-21T02:08:37;20.60;72.30
8002;DHT22;4046;48.774;8.732;2024-02-21T02:11:18;20.60;72.40
8002;DHT22;4046;48.774;8.732;2024-02-21T02:14:14;20.60;72.40
8002;DHT22;4046;48.774;8.732;2024-02-21T02:17:26;20.50;72.30
8002;DHT22;4046;48.774;8.732;2024-02-21T02:23:32;20.50;72.30
8002;DHT22;4046;48.774;8.732;2024-02-21T02:26:13;20.60;72.40
8002;DHT22;4046;48.774;8.732;2024-02-21T02:35:30;20.50;72.30
8002;DHT22;4046;48.774;8.732;2024-02-21T02:41:29;20.60;72.40
8002;DHT22;4046;48.774;8.732;2024-02-21T02:44:22;20.60;72.40
8002;DHT22;4046;48.774;8.732;2024-02-21T02:46:48;20.60;72.30
8002;DHT22;4046;48.774;8.732;2024-02-21T02:49:24;20.60;72.40
8002;DHT22;4046;48.774;8.732;2024-02-21T02:52:04;20.60;72.30
8002;DHT22;4046;48.774;8.732;2024-02-21T02:58:48;20.50;72.30
8002;DHT22;4046;48.774;8.732;2024-02-21T03:05:41;20.50;72.30
8002;DHT22;4046;48.774;8.732;2024-02-21T03:08:27;20.50;72.30
8002;DHT22;4046;48.774;8.732;2024-02-21T03:10:53;20.50;72.30
8002;DHT22;4046;48.774;8.732;2024-02-21T03:13:28;20.50;72.30
8002;DHT22;4046;48.774;8.732;2024-02-21T03:15:54;20.50;72.30
8002;DHT22;4046;48.774;8.732;2024-02-21T03:18:57;20.60;72.30
8002;DHT22;4046;48.774;8.732;2024-02-21T03:22:06;20.50;72.20
8002;DHT22;4046;48.774;8.732;2024-02-21T03:28:19;20.60;72.30
8002;DHT22;4046;48.774;8.732;2024-02-21T03:31:12;20.50;72.20
8002;DHT22;4046;48.774;8.732;2024-02-21T03:33:44;20.50;72.20
8002;DHT22;4046;48.774;8.732;2024-02-21T03:36:53;20.50;72.20
8002;DHT22;4046;48.774;8.732;2024-02-21T03:39:12;20.50;72.20
8002;DHT22;4046;48.774;8.732;2024-02-21T03:41:38;20.50;72.90
8002;DHT22;4046;48.774;8.732;2024-02-21T03:44:04;20.50;72.20
8002;DHT22;4046;48.774;8.732;2024-02-21T03:46:48;20.60;72.30
8002;DHT22;4046;48.774;8.732;2024-02-21T03:49:45;20.60;72.30
8002;DHT22;4046;48.774;8.732;2024-02-21T03:55:32;20.60;72.20
8002;DHT22;4046;48.774;8.732;2024-02-21T03:57:58;20.50;72.20
8002;DHT22;4046;48.774;8.732;2024-02-21T04:00:56;20.50;72.20
8002;DHT22;4046;48.774;8.732;2024-02-21T04:06:48;20.50;72.20
8002;DHT22;4046;48.774;8.732;2024-02-21T04:09:51;20.50;72.20
8002;DHT22;4046;48.774;8.732;2024-02-21T04:12:42;20.50;72.20
8002;DHT22;4046;48.774;8.732;2024-02-21T04:15:48;20.50;72.10
8002;DHT22;4046;48.774;8.732;2024-02-21T04:18:14;20.50;72.20
8002;DHT22;4046;48.774;8.732;2024-02-21T04:24:09;20.50;72.10
8002;DHT22;4046;48.774;8.732;2024-02-21T04:26:35;20.50;72.20
8002;DHT22;4046;48.774;8.732;2024-02-21T04:29:46;20.60;72.30
8002;DHT22;4046;48.774;8.732;2024-02-21T04:33:14;20.50;72.20
8002;DHT22;4046;48.774;8.732;2024-02-21T04:36:01;20.50;72.10
8002;DHT22;4046;48.774;8.732;2024-02-21T04:38:56;20.50;72.20
8002;DHT22;4046;48.774;8.732;2024-02-21T04:41:32;20.50;72.20
8002;DHT22;4046;48.774;8.732;2024-02-21T04:43:58;20.50;72.10
8002;DHT22;4046;48.774;8.732;2024-02-21T04:47:08;20.50;72.10
8002;DHT22;4046;48.774;8.732;2024-02-21T04:54:04;20.50;72.10
8002;DHT22;4046;48.774;8.732;2024-02-21T04:59:57;20.50;72.10
8002;DHT22;4046;48.774;8.732;2024-02-21T05:02:33;20.50;72.10
8002;DHT22;4046;48.774;8.732;2024-02-21T05:05:57;20.50;72.10
8002;DHT22;4046;48.774;8.732;2024-02-21T05:15:14;20.50;72.10
8002;DHT22;4046;48.774;8.732;2024-02-21T05:18:23;20.50;72.10
8002;DHT22;4046;48.774;8.732;2024-02-21T05:20:42;20.50;72.10
8002;DHT22;4046;48.774;8.732;2024-02-21T05:23:37;20.50;72.80
8002;DHT22;4046;48.774;8.732;2024-02-21T05:26:06;20.50;72.10
8002;DHT22;4046;48.774;8.732;2024-02-21T05:28:41;20.50;72.10
8002;DHT22;4046;48.774;8.732;2024-02-21T05:34:41;20.50;72.10
8002;DHT22;4046;48.774;8.732;2024-02-21T05:40:38;20.50;72.00
8002;DHT22;4046;48.774;8.732;2024-02-21T05:43:25;20.50;72.00
8002;DHT22;4046;48.774;8.732;2024-02-21T05:45:51;20.50;72.10
8002;DHT22;4046;48.774;8.732;2024-02-21T05:48:18;20.50;72.00
8002;DHT22;4046;48.774;8.732;2024-02-21T05:50:53;20.50;72.00
8002;DHT22;4046;48.774;8.732;2024-02-21T05:53:51;20.50;72.00
8002;DHT22;4046;48.774;8.732;2024-02-21T05:56:17;20.50;72.00
8002;DHT22;4046;48.774;8.732;2024-02-21T06:02:55;20.50;72.00
8002;DHT22;4046;48.774;8.732;2024-02-21T06:05:46;20.50;72.00
8002;DHT22;4046;48.774;8.732;2024-02-21T06:08:12;20.50;72.00
8002;DHT22;4046;48.774;8.732;2024-02-21T06:10:38;20.50;72.00
8002;DHT22;4046;48.774;8.732;2024-02-21T06:13:17;20.50;71.90
8002;DHT22;4046;48.774;8.732;2024-02-21T06:16:13;20.50;72.00
8002;DHT22;4046;48.774;8.732;2024-02-21T06:19:06;20.50;71.90
8002;DHT22;4046;48.774;8.732;2024-02-21T06:22:11;20.50;72.00
8002;DHT22;4046;48.774;8.732;2024-02-21T06:24:47;20.60;72.00
8002;DHT22;4046;48.774;8.732;2024-02-21T06:28:09;20.60;72.00
8002;DHT22;4046;48.774;8.732;2024-02-21T06:30:35;20.50;71.90
8002;DHT22;4046;48.774;8.732;2024-02-21T06:33:32;20.50;71.90
8002;DHT22;4046;48.774;8.732;2024-02-21T06:36:18;20.50;71.90
8002;DHT22;4046;48.774;8.732;2024-02-21T06:38:53;20.50;71.90
8002;DHT22;4046;48.774;8.732;2024-02-21T06:41:32;20.50;71.90
8002;DHT22;4046;48.774;8.732;2024-02-21T06:44:09;20.50;71.90
8002;DHT22;4046;48.774;8.732;2024-02-21T06:46:38;20.50;71.80
8002;DHT22;4046;48.774;8.732;2024-02-21T06:49:04;20.50;71.80
8002;DHT22;4046;48.774;8.732;2024-02-21T06:51:31;20.50;71.80
8002;DHT22;4046;48.774;8.732;2024-02-21T06:54:07;20.50;71.80
8002;DHT22;4046;48.774;8.732;2024-02-21T06:56:33;20.50;71.80
8002;DHT22;4046;48.774;8.732;2024-02-21T06:58:59;20.50;71.80
8002;DHT22;4046;48.774;8.732;2024-02-21T07:02:08;20.60;71.80
8002;DHT22;4046;48.774;8.732;2024-02-21T07:04:26;20.60;71.80
8002;DHT22;4046;48.774;8.732;2024-02-21T07:09:58;20.60;71.80
8002;DHT22;4046;48.774;8.732;2024-02-21T07:12:26;20.60;71.70
8002;DHT22;4046;48.774;8.732;2024-02-21T07:14:55;20.60;71.80
8002;DHT22;4046;48.774;8.732;2024-02-21T07:17:37;20.60;71.70
8002;DHT22;4046;48.774;8.732;2024-02-21T07:20:23;20.60;71.70
8002;DHT22;4046;48.774;8.732;2024-02-21T07:23:22;20.60;71.70
8002;DHT22;4046;48.774;8.732;2024-02-21T07:26:10;20.60;71.80
8002;DHT22;4046;48.774;8.732;2024-02-21T07:32:15;20.60;71.70
8002;DHT22;4046;48.774;8.732;2024-02-21T07:38:04;20.60;71.70
8002;DHT22;4046;48.774;8.732;2024-02-21T07:40:31;20.60;71.70
8002;DHT22;4046;48.774;8.732;2024-02-21T07:43:12;20.60;71.70
8002;DHT22;4046;48.774;8.732;2024-02-21T07:46:37;20.60;71.60
8002;DHT22;4046;48.774;8.732;2024-02-21T07:49:11;20.60;71.60
8002;DHT22;4046;48.774;8.732;2024-02-21T07:52:05;20.70;71.60
8002;DHT22;4046;48.774;8.732;2024-02-21T07:54:32;20.70;71.60
8002;DHT22;4046;48.774;8.732;2024-02-21T07:57:15;20.70;71.50
8002;DHT22;4046;48.774;8.732;2024-02-21T08:00:25;20.70;71.50
8002;DHT22;4046;48.774;8.732;2024-02-21T08:03:14;20.70;71.50
8002;DHT22;4046;48.774;8.732;2024-02-21T08:09:09;20.70;71.50
8002;DHT22;4046;48.774;8.732;2024-02-21T08:11:38;20.70;71.50
8002;DHT22;4046;48.774;8.732;2024-02-21T08:14:39;20.70;71.50
8002;DHT22;4046;48.774;8.732;2024-02-21T08:17:14;20.70;71.40
8002;DHT22;4046;48.774;8.732;2024-02-21T08:19:40;20.70;71.40
8002;DHT22;4046;48.774;8.732;2024-02-21T08:22:07;20.70;71.40
8002;DHT22;4046;48.774;8.732;2024-02-21T08:25:31;20.70;71.30
8002;DHT22;4046;48.774;8.732;2024-02-21T08:28:06;20.80;71.30
8002;DHT22;4046;48.774;8.732;2024-02-21T08:30:37;20.80;71.40
8002;DHT22;4046;48.774;8.732;2024-02-21T08:33:55;20.80;71.30
8002;DHT22;4046;48.774;8.732;2024-02-21T08:36:33;20.80;71.20
8002;DHT22;4046;48.774;8.732;2024-02-21T08:39:38;20.80;71.30
8002;DHT22;4046;48.774;8.732;2024-02-21T08:45:30;20.70;71.30
8002;DHT22;4046;48.774;8.732;2024-02-21T08:48:14;20.70;71.30
8002;DHT22;4046;48.774;8.732;2024-02-21T08:51:15;20.70;71.30
8002;DHT22;4046;48.774;8.732;2024-02-21T08:54:11;20.70;71.30
8002;DHT22;4046;48.774;8.732;2024-02-21T08:56:38;20.70;71.20
8002;DHT22;4046;48.774;8.732;2024-02-21T09:02:24;20.80;71.30
8002;DHT22;4046;48.774;8.732;2024-02-21T09:07:51;20.80;71.20
8002;DHT22;4046;48.774;8.732;2024-02-21T09:10:18;20.80;71.10
8002;DHT22;4046;48.774;8.732;2024-02-21T09:13:00;20.80;71.20
8002;DHT22;4046;48.774;8.732;2024-02-21T09:15:32;20.80;71.10
8002;DHT22;4046;48.774;8.732;2024-02-21T09:17:59;20.80;71.10
8002;DHT22;4046;48.774;8.732;2024-02-21T09:20:54;20.80;71.10
8002;DHT22;4046;48.774;8.732;2024-02-21T09:23:46;20.90;71.00
8002;DHT22;4046;48.774;8.732;2024-02-21T09:26:33;20.90;70.80
8002;DHT22;4046;48.774;8.732;2024-02-21T09:29:29;21.00;70.80
8002;DHT22;4046;48.774;8.732;2024-02-21T09:35:47;21.20;70.50
8002;DHT22;4046;48.774;8.732;2024-02-21T09:38:28;21.30;70.20
8002;DHT22;4046;48.774;8.732;2024-02-21T09:40:59;21.50;70.00
8002;DHT22;4046;48.774;8.732;2024-02-21T09:43:36;21.50;69.80
8002;DHT22;4046;48.774;8.732;2024-02-21T09:49:47;21.80;69.30
8002;DHT22;4046;48.774;8.732;2024-02-21T09:52:16;21.80;69.20
8002;DHT22;4046;48.774;8.732;2024-02-21T09:58:14;22.00;69.00
8002;DHT22;4046;48.774;8.732;2024-02-21T10:00:52;22.00;69.00
8002;DHT22;4046;48.774;8.732;2024-02-21T10:03:47;22.00;69.00
8002;DHT22;4046;48.774;8.732;2024-02-21T10:06:14;22.00;69.00
8002;DHT22;4046;48.774;8.732;2024-02-21T10:08:40;21.90;68.90
8002;DHT22;4046;48.774;8.732;2024-02-21T10:11:06;22.00;69.00
8002;DHT22;4046;48.774;8.732;2024-02-21T10:17:14;21.80;69.00
8002;DHT22;4046;48.774;8.732;2024-02-21T10:19:50;21.80;69.10
8002;DHT22;4046;48.774;8.732;2024-02-21T10:23:21;21.80;69.10
8002;DHT22;4046;48.774;8.732;2024-02-21T10:26:37;21.80;69.00
8002;DHT22;4046;48.774;8.732;2024-02-21T10:29:09;21.80;69.00
8002;DHT22;4046;48.774;8.732;2024-02-21T10:31:35;21.80;69.00
8002;DHT22;4046;48.774;8.732;2024-02-21T10:34:07;21.80;69.00
8002;DHT22;4046;48.774;8.732;2024-02-21T10:37:10;21.70;68.90
8002;DHT22;4046;48.774;8.732;2024-02-21T10:39:41;21.70;69.00
8002;DHT22;4046;48.774;8.732;2024-02-21T10:45:35;21.60;69.30
8002;DHT22;4046;48.774;8.732;2024-02-21T10:48:19;21.40;69.50
8002;DHT22;4046;48.774;8.732;2024-02-21T10:54:45;21.30;69.90
8002;DHT22;4046;48.774;8.732;2024-02-21T11:01:04;21.10;70.10
8002;DHT22;4046;48.774;8.732;2024-02-21T11:03:45;21.00;70.20
8002;DHT22;4046;48.774;8.732;2024-02-21T11:06:16;21.00;70.30
8002;DHT22;4046;48.774;8.732;2024-02-21T11:09:14;20.90;70.30
8002;DHT22;4046;48.774;8.732;2024-02-21T11:11:41;20.90;70.80
8002;DHT22;4046;48.774;8.732;2024-02-21T11:21:12;20.80;70.50
8002;DHT22;4046;48.774;8.732;2024-02-21T11:27:20;20.80;70.60
8002;DHT22;4046;48.774;8.732;2024-02-21T11:29:57;20.80;70.60
8002;DHT22;4046;48.774;8.732;2024-02-21T11:35:43;20.90;70.60
8002;DHT22;4046;48.774;8.732;2024-02-21T11:38:38;20.80;70.50
8002;DHT22;4046;48.774;8.732;2024-02-21T11:45:17;20.90;70.60
8002;DHT22;4046;48.774;8.732;2024-02-21T11:51:44;20.90;71.30
8002;DHT22;4046;48.774;8.732;2024-02-21T11:54:23;20.90;70.50
8002;DHT22;4046;48.774;8.732;2024-02-21T11:56:51;21.10;70.70
8002;DHT22;4046;48.774;8.732;2024-02-21T11:59:17;20.90;70.50
8002;DHT22;4046;48.774;8.732;2024-02-21T12:01:44;20.90;70.50
8002;DHT22;4046;48.774;8.732;2024-02-21T12:05:16;20.90;70.50
8002;DHT22;4046;48.774;8.732;2024-02-21T12:07:46;20.90;70.50
8002;DHT22;4046;48.774;8.732;2024-02-21T12:10:13;20.90;70.60
8002;DHT22;4046;48.774;8.732;2024-02-21T12:13:09;20.90;70.60
8002;DHT22;4046;48.774;8.732;2024-02-21T12:15:47;20.90;70.60
8002;DHT22;4046;48.774;8.732;2024-02-21T12:18:14;20.90;70.60
8002;DHT22;4046;48.774;8.732;2024-02-21T12:20:41;20.90;70.60
8002;DHT22;4046;48.774;8.732;2024-02-21T12:23:23;20.80;70.60
8002;DHT22;4046;48.774;8.732;2024-02-21T12:26:19;20.80;70.60
8002;DHT22;4046;48.774;8.732;2024-02-21T12:28:51;20.80;70.60
8002;DHT22;4046;48.774;8.732;2024-02-21T12:31:26;20.90;70.70
8002;DHT22;4046;48.774;8.732;2024-02-21T12:33:54;20.80;70.70
8002;DHT22;4046;48.774;8.732;2024-02-21T12:36:20;20.90;70.90
8002;DHT22;4046;48.774;8.732;2024-02-21T12:38:56;20.80;70.80
8002;DHT22;4046;48.774;8.732;2024-02-21T12:41:38;20.80;70.80
8002;DHT22;4046;48.774;8.732;2024-02-21T12:44:05;20.80;70.80
8002;DHT22;4046;48.774;8.732;2024-02-21T12:51:02;20.80;70.80
8002;DHT22;4046;48.774;8.732;2024-02-21T12:53:53;20.80;70.80
8002;DHT22;4046;48.774;8.732;2024-02-21T12:56:48;20.80;70.80
8002;DHT22;4046;48.774;8.732;2024-02-21T13:03:30;20.80;70.80
8002;DHT22;4046;48.774;8.732;2024-02-21T13:05:56;20.70;70.80
8002;DHT22;4046;48.774;8.732;2024-02-21T13:08:25;20.70;70.80
8002;DHT22;4046;48.774;8.732;2024-02-21T13:10:52;20.80;70.90
8002;DHT22;4046;48.774;8.732;2024-02-21T13:13:24;20.70;70.80
8002;DHT22;4046;48.774;8.732;2024-02-21T13:16:30;20.70;70.80
8002;DHT22;4046;48.774;8.732;2024-02-21T13:19:37;20.80;70.90
8002;DHT22;4046;48.774;8.732;2024-02-21T13:26:10;20.80;71.00
8002;DHT22;4046;48.774;8.732;2024-02-21T13:32:31;20.70;71.00
8002;DHT22;4046;48.774;8.732;2024-02-21T13:38:41;20.70;70.90
8002;DHT22;4046;48.774;8.732;2024-02-21T13:41:32;20.80;71.00
8002;DHT22;4046;48.774;8.732;2024-02-21T13:44:35;20.80;71.00
8002;DHT22;4046;48.774;8.732;2024-02-21T13:47:51;20.80;71.00
8002;DHT22;4046;48.774;8.732;2024-02-21T13:50:49;20.80;71.00
8002;DHT22;4046;48.774;8.732;2024-02-21T13:53:57;20.70;71.00
8002;DHT22;4046;48.774;8.732;2024-02-21T14:00:11;20.70;71.00
8002;DHT22;4046;48.774;8.732;2024-02-21T14:02:38;20.70;71.10
8002;DHT22;4046;48.774;8.732;2024-02-21T14:05:25;20.70;71.10
8002;DHT22;4046;48.774;8.732;2024-02-21T14:07:56;20.70;71.10
8002;DHT22;4046;48.774;8.732;2024-02-21T14:11:37;20.70;71.10
8002;DHT22;4046;48.774;8.732;2024-02-21T14:14:07;20.70;71.00
8002;DHT22;4046;48.774;8.732;2024-02-21T14:16:42;20.70;71.10
8002;DHT22;4046;48.774;8.732;2024-02-21T14:19:46;20.70;71.10
8002;DHT22;4046;48.774;8.732;2024-02-21T14:22:12;20.70;71.00
8002;DHT22;4046;48.774;8.732;2024-02-21T14:24:38;20.70;71.00
8002;DHT22;4046;48.774;8.732;2024-02-21T14:27:17;20.70;71.00
8002;DHT22;4046;48.774;8.732;2024-02-21T14:29:50;20.70;71.10
8002;DHT22;4046;48.774;8.732;2024-02-21T14:32:16;20.70;71.10
8002;DHT22;4046;48.774;8.732;2024-02-21T14:34:45;20.70;71.10
8002;DHT22;4046;48.774;8.732;2024-02-21T14:37:24;20.70;71.00
8002;DHT22;4046;48.774;8.732;2024-02-21T14:40:03;20.80;71.10
8002;DHT22;4046;48.774;8.732;2024-02-21T14:42:30;20.70;71.10
8002;DHT22;4046;48.774;8.732;2024-02-21T14:45:00;20.70;71.10
8002;DHT22;4046;48.774;8.732;2024-02-21T14:47:55;20.80;71.10
8002;DHT22;4046;48.774;8.732;2024-02-21T14:50:24;20.70;71.10
8002;DHT22;4046;48.774;8.732;2024-02-21T14:53:19;20.70;71.10
8002;DHT22;4046;48.774;8.732;2024-02-21T14:55:45;20.70;71.10
8002;DHT22;4046;48.774;8.732;2024-02-21T14:58:27;20.70;71.10
8002;DHT22;4046;48.774;8.732;2024-02-21T15:01:40;20.70;71.10
8002;DHT22;4046;48.774;8.732;2024-02-21T15:04:28;20.70;71.10
8002;DHT22;4046;48.774;8.732;2024-02-21T15:07:27;20.70;71.10
8002;DHT22;4046;48.774;8.732;2024-02-21T15:09:57;20.70;71.10
8002;DHT22;4046;48.774;8.732;2024-02-21T15:15:33;20.70;71.10
8002;DHT22;4046;48.774;8.732;2024-02-21T15:19:02;20.80;71.20
8002;DHT22;4046;48.774;8.732;2024-02-21T15:21:40;20.80;71.10
8002;DHT22;4046;48.774;8.732;2024-02-21T15:24:20;20.70;71.10
8002;DHT22;4046;48.774;8.732;2024-02-21T15:30:10;20.80;71.20
8002;DHT22;4046;48.774;8.732;2024-02-21T15:33:03;20.80;71.20
8002;DHT22;4046;48.774;8.732;2024-02-21T15:38:39;20.70;71.20
8002;DHT22;4046;48.774;8.732;2024-02-21T15:41:32;20.70;71.20
8002;DHT22;4046;48.774;8.732;2024-02-21T15:47:41;20.70;71.20
8002;DHT22;4046;48.774;8.732;2024-02-21T15:50:38;20.70;71.20
8002;DHT22;4046;48.774;8.732;2024-02-21T15:56:35;20.70;71.30
8002;DHT22;4046;48.774;8.732;2024-02-21T15:59:01;20.70;71.20
8002;DHT22;4046;48.774;8.732;2024-02-21T16:01:34;20.70;71.30
8002;DHT22;4046;48.774;8.732;2024-02-21T16:05:00;20.70;71.20
8002;DHT22;4046;48.774;8.732;2024-02-21T16:07:32;20.70;71.20
8002;DHT22;4046;48.774;8.732;2024-02-21T16:10:33;20.70;71.30
8002;DHT22;4046;48.774;8.732;2024-02-21T16:13:39;20.70;71.20
8002;DHT22;4046;48.774;8.732;2024-02-21T16:16:24;20.70;71.30
8002;DHT22;4046;48.774;8.732;2024-02-21T16:18:51;20.70;71.30
8002;DHT22;4046;48.774;8.732;2024-02-21T16:21:23;20.70;71.30
8002;DHT22;4046;48.774;8.732;2024-02-21T16:24:09;20.70;71.30
8002;DHT22;4046;48.774;8.732;2024-02-21T16:26:37;20.70;71.30
8002;DHT22;4046;48.774;8.732;2024-02-21T16:29:36;20.70;71.30
8002;DHT22;4046;48.774;8.732;2024-02-21T16:32:12;20.70;71.30
8002;DHT22;4046;48.774;8.732;2024-02-21T16:35:13;20.70;71.40
8002;DHT22;4046;48.774;8.732;2024-02-21T16:37:41;20.70;71.40
8002;DHT22;4046;48.774;8.732;2024-02-21T16:40:07;20.70;71.50
8002;DHT22;4046;48.774;8.732;2024-02-21T16:42:34;20.70;71.40
8002;DHT22;4046;48.774;8.732;2024-02-21T16:45:10;20.70;71.40
8002;DHT22;4046;48.774;8.732;2024-02-21T16:47:58;20.70;71.40
8002;DHT22;4046;48.774;8.732;2024-02-21T16:50:24;20.70;71.40
8002;DHT22;4046;48.774;8.732;2024-02-21T16:52:50;20.70;71.40
8002;DHT22;4046;48.774;8.732;2024-02-21T16:58:36;20.70;71.40
8002;DHT22;4046;48.774;8.732;2024-02-21T17:01:04;20.70;71.30
8002;DHT22;4046;48.774;8.732;2024-02-21T17:03:33;20.70;71.40
8002;DHT22;4046;48.774;8.732;2024-02-21T17:06:20;20.70;71.40
8002;DHT22;4046;48.774;8.732;2024-02-21T17:09:29;20.70;71.40
8002;DHT22;4046;48.774;8.732;2024-02-21T17:12:28;20.70;71.30
8002;DHT22;4046;48.774;8.732;2024-02-21T17:14:54;20.70;71.40
8002;DHT22;4046;48.774;8.732;2024-02-21T17:20:45;20.70;71.40
8002;DHT22;4046;48.774;8.732;2024-02-21T17:23:44;20.70;71.40
8002;DHT22;4046;48.774;8.732;2024-02-21T17:26:24;20.70;71.40
8002;DHT22;4046;48.774;8.732;2024-02-21T17:28:52;20.80;71.50
8002;DHT22;4046;48.774;8.732;2024-02-21T17:31:38;20.70;71.40
8002;DHT22;4046;48.774;8.732;2024-02-21T17:34:24;20.80;71.50
8002;DHT22;4046;48.774;8.732;2024-02-21T17:37:00;20.80;71.40
8002;DHT22;4046;48.774;8.732;2024-02-21T17:39:36;20.80;71.50
8002;DHT22;4046;48.774;8.732;2024-02-21T17:42:36;20.80;71.40
8002;DHT22;4046;48.774;8.732;2024-02-21T17:45:14;20.80;71.40
8002;DHT22;4046;48.774;8.732;2024-02-21T17:47:46;20.80;71.40
8002;DHT22;4046;48.774;8.732;2024-02-21T17:50:23;20.80;71.40
8002;DHT22;4046;48.774;8.732;2024-02-21T17:52:59;20.80;71.50
8002;DHT22;4046;48.774;8.732;2024-02-21T17:55:36;20.80;71.40
8002;DHT22;4046;48.774;8.732;2024-02-21T17:58:06;20.80;71.40
8002;DHT22;4046;48.774;8.732;2024-02-21T18:00:33;20.90;71.50
8002;DHT22;4046;48.774;8.732;2024-02-21T18:03:39;20.80;71.40
8002;DHT22;4046;48.774;8.732;2024-02-21T18:06:43;20.80;71.30
8002;DHT22;4046;48.774;8.732;2024-02-21T18:09:13;20.90;71.50
8002;DHT22;4046;48.774;8.732;2024-02-21T18:12:00;20.80;71.50
8002;DHT22;4046;48.774;8.732;2024-02-21T18:14:32;20.90;71.50
8002;DHT22;4046;48.774;8.732;2024-02-21T18:16:59;20.90;71.40
8002;DHT22;4046;48.774;8.732;2024-02-21T18:19:25;20.90;71.40
8002;DHT22;4046;48.774;8.732;2024-02-21T18:22:23;20.90;71.40
8002;DHT22;4046;48.774;8.732;2024-02-21T18:25:19;20.80;71.40
8002;DHT22;4046;48.774;8.732;2024-02-21T18:28:14;20.90;72.30
8002;DHT22;4046;48.774;8.732;2024-02-21T18:31:14;20.80;71.50
8002;DHT22;4046;48.774;8.732;2024-02-21T18:34:24;20.90;71.50
8002;DHT22;4046;48.774;8.732;2024-02-21T18:37:35;20.90;71.60
8002;DHT22;4046;48.774;8.732;2024-02-21T18:41:15;20.80;71.40
8002;DHT22;4046;48.774;8.732;2024-02-21T18:44:37;20.80;71.40
8002;DHT22;4046;48.774;8.732;2024-02-21T18:47:15;20.80;71.50
8002;DHT22;4046;48.774;8.732;2024-02-21T18:50:07;20.80;71.50
8002;DHT22;4046;48.774;8.732;2024-02-21T18:53:18;20.80;72.30
8002;DHT22;4046;48.774;8.732;2024-02-21T18:56:29;20.90;71.60
8002;DHT22;4046;48.774;8.732;2024-02-21T18:59:26;20.90;71.60
8002;DHT22;4046;48.774;8.732;2024-02-21T19:02:29;20.80;71.50
8002;DHT22;4046;48.774;8.732;2024-02-21T19:05:24;20.90;71.60
8002;DHT22;4046;48.774;8.732;2024-02-21T19:11:59;20.80;71.50
8002;DHT22;4046;48.774;8.732;2024-02-21T19:14:43;20.80;71.60
8002;DHT22;4046;48.774;8.732;2024-02-21T19:17:10;20.80;71.50
8002;DHT22;4046;48.774;8.732;2024-02-21T19:23:47;20.80;71.50
8002;DHT22;4046;48.774;8.732;2024-02-21T19:26:48;20.80;71.50
8002;DHT22;4046;48.774;8.732;2024-02-21T19:29:28;20.80;71.50
8002;DHT22;4046;48.774;8.732;2024-02-21T19:32:32;20.80;71.60
8002;DHT22;4046;48.774;8.732;2024-02-21T19:35:23;20.80;71.60
8002;DHT22;4046;48.774;8.732;2024-02-21T19:38:47;20.80;71.60
8002;DHT22;4046;48.774;8.732;2024-02-21T19:44:50;20.80;71.60
8002;DHT22;4046;48.774;8.732;2024-02-21T19:47:16;20.80;71.60
8002;DHT22;4046;48.774;8.732;2024-02-21T19:49:49;20.80;71.60
8002;DHT22;4046;48.774;8.732;2024-02-21T19:52:33;20.80;71.60
8002;DHT22;4046;48.774;8.732;2024-02-21T19:55:38;20.80;71.70
8002;DHT22;4046;48.774;8.732;2024-02-21T19:58:30;20.80;71.60
8002;DHT22;4046;48.774;8.732;2024-02-21T20:01:28;20.80;71.70
8002;DHT22;4046;48.774;8.732;2024-02-21T20:04:08;20.80;71.60
8002;DHT22;4046;48.774;8.732;2024-02-21T20:07:10;20.80;71.70
8002;DHT22;4046;48.774;8.732;2024-02-21T20:10:14;20.80;71.60
8002;DHT22;4046;48.774;8.732;2024-02-21T20:12:59;20.80;71.60
8002;DHT22;4046;48.774;8.732;2024-02-21T20:15:37;21.10;72.00
8002;DHT22;4046;48.774;8.732;2024-02-21T20:18:43;20.80;71.60
8002;DHT22;4046;48.774;8.732;2024-02-21T20:21:46;20.80;71.70
8002;DHT22;4046;48.774;8.732;2024-02-21T20:27:55;20.80;71.70
8002;DHT22;4046;48.774;8.732;2024-02-21T20:31:08;20.80;71.70
8002;DHT22;4046;48.774;8.732;2024-02-21T20:33:35;20.80;71.70
8002;DHT22;4046;48.774;8.732;2024-02-21T20:36:14;20.80;72.50
8002;DHT22;4046;48.774;8.732;2024-02-21T20:39:00;20.80;71.70
8002;DHT22;4046;48.774;8.732;2024-02-21T20:41:27;20.80;71.70
8002;DHT22;4046;48.774;8.732;2024-02-21T20:43:56;20.80;71.70
8002;DHT22;4046;48.774;8.732;2024-02-21T20:46:52;20.80;71.60
8002;DHT22;4046;48.774;8.732;2024-02-21T20:52:43;20.80;71.70
8002;DHT22;4046;48.774;8.732;2024-02-21T20:59:13;20.80;71.70
8002;DHT22;4046;48.774;8.732;2024-02-21T21:05:24;20.80;71.60
8002;DHT22;4046;48.774;8.732;2024-02-21T21:08:01;20.80;71.60
8002;DHT22;4046;48.774;8.732;2024-02-21T21:10:28;20.80;71.60
8002;DHT22;4046;48.774;8.732;2024-02-21T21:13:07;20.80;71.60
8002;DHT22;4046;48.774;8.732;2024-02-21T21:16:03;20.80;71.60
8002;DHT22;4046;48.774;8.732;2024-02-21T21:19:05;20.80;71.60
8002;DHT22;4046;48.774;8.732;2024-02-21T21:21:31;20.80;71.60
8002;DHT22;4046;48.774;8.732;2024-02-21T21:24:33;20.80;71.60
8002;DHT22;4046;48.774;8.732;2024-02-21T21:27:29;20.80;71.50
8002;DHT22;4046;48.774;8.732;2024-02-21T21:33:45;20.80;71.60